createdAt,value
2019-03-16T00:00:47.048Z,16.90
2019-03-16T00:02:50.511Z,18.92
2019-03-16T00:04:54.354Z,15.88
2019-03-16T00:06:58.189Z,14.50
2019-03-16T00:09:02.019Z,14.63
2019-03-16T00:11:05.797Z,14.55
2019-03-16T00:13:09.701Z,14.55
2019-03-16T00:15:13.235Z,16.17
2019-03-16T00:17:23.336Z,12.35
2019-03-16T00:19:21.944Z,12.50
2019-03-16T00:21:25.405Z,12.53
2019-03-16T00:23:28.974Z,15.30
2019-03-16T00:25:32.513Z,17.73
2019-03-16T00:27:36.444Z,16.23
2019-03-16T00:29:40.224Z,6.55
2019-03-16T00:31:43.761Z,7.10
2019-03-16T00:33:47.343Z,8.30
2019-03-16T00:35:50.949Z,10.70
2019-03-16T00:37:54.487Z,17.07
2019-03-16T00:39:58.086Z,12.88
2019-03-16T00:42:01.720Z,10.58
2019-03-16T00:44:05.225Z,11.93
2019-03-16T00:46:08.752Z,7.17
2019-03-16T00:48:12.222Z,8.15
2019-03-16T00:50:15.684Z,10.55
2019-03-16T00:52:19.147Z,7.17
2019-03-16T00:54:22.684Z,5.08
2019-03-16T00:56:26.216Z,11.45
2019-03-16T00:58:29.757Z,5.70
2019-03-16T01:00:33.280Z,7.42
2019-03-16T01:02:36.741Z,5.67
2019-03-16T01:04:40.565Z,7.50
2019-03-16T01:06:44.192Z,6.42
2019-03-16T01:08:48.466Z,5.28
2019-03-16T01:10:51.922Z,2.87
2019-03-16T01:12:55.402Z,5.50
2019-03-16T01:14:58.928Z,4.78
2019-03-16T01:17:02.393Z,4.10
2019-03-16T01:19:05.848Z,3.15
2019-03-16T01:21:09.404Z,5.97
2019-03-16T01:23:13.172Z,1.70
2019-03-16T01:25:16.697Z,8.03
2019-03-16T01:27:20.153Z,3.42
2019-03-16T01:29:23.628Z,3.27
2019-03-16T01:31:27.169Z,6.05
2019-03-16T01:33:30.624Z,6.12
2019-03-16T01:35:34.088Z,5.12
2019-03-16T01:37:37.546Z,4.97
2019-03-16T01:39:41.078Z,5.28
2019-03-16T01:41:44.629Z,5.37
2019-03-16T01:43:48.153Z,5.47
2019-03-16T01:45:51.956Z,2.67
2019-03-16T01:47:55.484Z,5.65
2019-03-16T01:49:58.946Z,9.65
2019-03-16T01:52:02.577Z,2.70
2019-03-16T01:54:06.040Z,7.33
2019-03-16T01:56:09.568Z,5.17
2019-03-16T01:58:13.022Z,3.65
2019-03-16T02:00:17.001Z,5.97
2019-03-16T02:02:21.162Z,10.65
2019-03-16T02:04:24.991Z,5.78
2019-03-16T02:06:28.792Z,7.58
2019-03-16T02:08:32.248Z,6.00
2019-03-16T02:10:36.604Z,4.87
2019-03-16T02:12:40.164Z,5.58
2019-03-16T02:14:43.900Z,4.97
2019-03-16T02:16:47.406Z,4.67
2019-03-16T02:18:51.509Z,5.55
2019-03-16T02:20:55.048Z,3.33
2019-03-16T02:22:58.617Z,5.05
2019-03-16T02:25:02.157Z,4.97
2019-03-16T02:27:05.758Z,10.85
2019-03-16T02:29:09.289Z,4.15
2019-03-16T02:31:12.756Z,6.65
2019-03-16T02:33:16.276Z,7.72
2019-03-16T02:35:19.845Z,4.92
2019-03-16T02:37:23.301Z,5.50
2019-03-16T02:39:26.759Z,6.62
2019-03-16T02:41:30.288Z,5.17
2019-03-16T02:43:33.738Z,4.15
2019-03-16T02:45:37.561Z,5.62
2019-03-16T02:47:41.475Z,8.45
2019-03-16T02:49:45.264Z,8.15
2019-03-16T02:51:48.751Z,9.20
2019-03-16T02:53:52.350Z,7.47
2019-03-16T02:55:56.777Z,5.78
2019-03-16T02:58:00.422Z,5.62
2019-03-16T03:00:08.502Z,5.35
2019-03-16T03:02:12.037Z,6.55
2019-03-16T03:04:15.832Z,4.87
2019-03-16T03:06:19.314Z,4.50
2019-03-16T03:08:22.980Z,3.12
2019-03-16T03:10:26.437Z,5.55
2019-03-16T03:12:30.074Z,5.30
2019-03-16T03:14:33.967Z,6.47
2019-03-16T03:16:37.637Z,5.53
2019-03-16T03:18:41.315Z,5.15
2019-03-16T03:20:44.982Z,5.30
2019-03-16T03:22:48.535Z,8.65
2019-03-16T03:24:52.473Z,4.50
2019-03-16T03:26:56.277Z,6.55
2019-03-16T03:28:59.793Z,6.85
2019-03-16T03:31:03.620Z,4.62
2019-03-16T03:33:07.138Z,7.33
2019-03-16T03:35:11.187Z,5.45
2019-03-16T03:37:14.705Z,5.90
2019-03-16T03:39:18.470Z,5.33
2019-03-16T03:41:22.358Z,5.58
2019-03-16T03:43:26.233Z,7.53
2019-03-16T03:45:30.124Z,7.60
2019-03-16T03:47:33.686Z,7.25
2019-03-16T03:49:37.217Z,7.70
2019-03-16T03:51:40.762Z,6.20
2019-03-16T03:53:44.595Z,6.45
2019-03-16T03:55:48.200Z,7.95
2019-03-16T03:57:51.712Z,6.62
2019-03-16T03:59:55.170Z,8.58
2019-03-16T04:01:58.770Z,7.03
2019-03-16T04:04:15.080Z,4.47
2019-03-16T04:06:08.027Z,7.28
2019-03-16T04:08:11.558Z,7.17
2019-03-16T04:10:15.733Z,9.80
2019-03-16T04:12:19.202Z,9.25
2019-03-16T04:14:22.736Z,9.28
2019-03-16T04:16:26.278Z,11.35
2019-03-16T04:18:29.815Z,7.37
2019-03-16T04:20:33.344Z,5.83
2019-03-16T04:22:36.810Z,7.12
2019-03-16T04:24:40.437Z,9.88
2019-03-16T04:26:43.974Z,10.30
2019-03-16T04:28:47.577Z,8.43
2019-03-16T04:30:51.126Z,6.40
2019-03-16T04:32:54.973Z,5.25
2019-03-16T04:34:58.432Z,7.25
2019-03-16T04:37:01.902Z,16.82
2019-03-16T04:39:06.602Z,10.88
2019-03-16T04:41:10.134Z,7.55
2019-03-16T04:43:13.665Z,10.40
2019-03-16T04:45:17.372Z,9.55
2019-03-16T04:47:21.132Z,5.70
2019-03-16T04:49:24.894Z,10.35
2019-03-16T04:51:28.985Z,10.15
2019-03-16T04:53:32.520Z,9.88
2019-03-16T04:55:36.285Z,9.68
2019-03-16T04:57:39.924Z,14.28
2019-03-16T04:59:43.435Z,16.48
2019-03-16T05:01:47.986Z,21.30
2019-03-16T05:03:51.520Z,29.55
2019-03-16T05:05:54.980Z,26.37
2019-03-16T05:07:58.550Z,26.95
2019-03-16T05:10:02.008Z,35.78
2019-03-16T05:12:05.781Z,26.15
2019-03-16T05:14:09.661Z,29.10
2019-03-16T05:16:13.200Z,21.73
2019-03-16T05:18:16.660Z,19.80
2019-03-16T05:20:20.250Z,19.35
2019-03-16T05:22:24.097Z,15.95
2019-03-16T05:24:27.556Z,25.32
2019-03-16T05:26:31.013Z,17.10
2019-03-16T05:28:34.977Z,20.12
2019-03-16T05:30:38.772Z,14.45
2019-03-16T05:32:42.239Z,9.15
2019-03-16T05:34:55.839Z,13.83
2019-03-16T05:36:51.565Z,12.28
2019-03-16T05:38:55.320Z,16.25
2019-03-16T05:40:59.220Z,19.98
2019-03-16T05:43:03.049Z,7.20
2019-03-16T05:45:08.326Z,17.52
2019-03-16T05:47:12.209Z,15.98
2019-03-16T05:49:15.724Z,63.58
2019-03-16T05:51:19.260Z,55.23
2019-03-16T05:53:22.799Z,42.38
2019-03-16T05:55:26.261Z,31.80
2019-03-16T05:57:29.715Z,13.05
2019-03-16T05:59:33.176Z,11.33
2019-03-16T06:01:36.673Z,12.75
2019-03-16T06:03:40.213Z,14.00
2019-03-16T06:05:43.750Z,71.60
2019-03-16T06:07:47.461Z,47.27
2019-03-16T06:09:51.321Z,15.65
2019-03-16T06:11:54.776Z,25.15
2019-03-16T06:13:58.549Z,49.08
2019-03-16T06:16:02.152Z,44.05
2019-03-16T06:18:05.621Z,39.85
2019-03-16T06:20:11.413Z,22.95
2019-03-16T06:22:15.269Z,107.17
2019-03-16T06:24:19.168Z,63.68
2019-03-16T06:26:23.716Z,84.90
2019-03-16T06:28:27.461Z,18.57
2019-03-16T06:30:30.930Z,79.60
2019-03-16T06:32:35.304Z,68.17
2019-03-16T06:34:39.103Z,80.32
2019-03-16T06:36:42.573Z,102.12
2019-03-16T06:38:46.144Z,91.78
2019-03-16T06:40:49.630Z,74.72
2019-03-16T06:42:53.348Z,66.60
2019-03-16T06:44:57.058Z,70.50
2019-03-16T06:47:01.177Z,96.90
2019-03-16T06:49:04.717Z,72.95
2019-03-16T06:51:08.676Z,118.02
2019-03-16T06:53:12.212Z,86.63
2019-03-16T06:55:16.102Z,85.45
2019-03-16T06:57:19.941Z,58.50
2019-03-16T06:59:23.553Z,74.20
2019-03-16T07:01:27.169Z,94.00
2019-03-16T07:03:31.129Z,80.80
2019-03-16T07:05:38.705Z,64.70
2019-03-16T07:07:39.882Z,49.30
2019-03-16T07:09:43.676Z,78.30
2019-03-16T07:11:47.177Z,65.87
2019-03-16T07:13:50.637Z,42.13
2019-03-16T07:15:54.248Z,39.67
2019-03-16T07:17:57.712Z,48.75
2019-03-16T07:20:01.182Z,57.88
2019-03-16T07:22:05.828Z,31.73
2019-03-16T07:24:11.444Z,70.97
2019-03-16T07:26:16.493Z,52.48
2019-03-16T07:28:20.394Z,51.28
2019-03-16T07:30:23.892Z,69.77
2019-03-16T07:32:27.464Z,81.57
2019-03-16T07:34:31.189Z,64.12
2019-03-16T07:36:36.065Z,50.58
2019-03-16T07:38:39.899Z,27.13
2019-03-16T07:40:44.128Z,45.55
2019-03-16T07:42:48.169Z,27.20
2019-03-16T07:44:51.793Z,36.88
2019-03-16T07:46:55.670Z,66.00
2019-03-16T07:48:59.248Z,69.65
2019-03-16T07:51:02.780Z,79.85
2019-03-16T07:53:06.385Z,46.10
2019-03-16T07:55:10.561Z,68.92
2019-03-16T07:57:14.100Z,61.33
2019-03-16T07:59:17.793Z,47.30
2019-03-16T08:01:21.388Z,48.48
2019-03-16T08:03:26.225Z,28.05
2019-03-16T08:05:30.201Z,27.30
2019-03-16T08:07:33.733Z,58.48
2019-03-16T08:09:37.597Z,59.25
2019-03-16T08:11:41.397Z,38.90
2019-03-16T08:13:44.930Z,27.37
2019-03-16T08:15:48.469Z,24.02
2019-03-16T08:17:52.245Z,33.30
2019-03-16T08:19:55.705Z,21.00
2019-03-16T08:22:00.267Z,25.72
2019-03-16T08:24:03.810Z,15.75
2019-03-16T08:26:07.342Z,26.37
2019-03-16T08:28:10.885Z,27.00
2019-03-16T08:30:14.529Z,39.75
2019-03-16T08:32:18.413Z,20.10
2019-03-16T08:34:22.017Z,14.43
2019-03-16T08:36:25.524Z,18.48
2019-03-16T08:38:28.984Z,28.27
2019-03-16T08:40:32.452Z,31.10
2019-03-16T08:42:35.913Z,28.42
2019-03-16T08:44:39.380Z,21.27
2019-03-16T08:46:42.998Z,48.83
2019-03-16T08:48:46.540Z,35.50
2019-03-16T08:50:50.121Z,37.33
2019-03-16T08:52:54.004Z,22.82
2019-03-16T08:54:57.605Z,24.43
2019-03-16T08:57:01.065Z,20.70
2019-03-16T08:59:04.528Z,25.82
2019-03-16T09:01:07.994Z,65.22
2019-03-16T09:03:11.632Z,68.65
2019-03-16T09:05:15.426Z,32.73
2019-03-16T09:07:18.889Z,79.67
2019-03-16T09:09:22.465Z,29.52
2019-03-16T09:11:26.933Z,57.10
2019-03-16T09:13:30.485Z,53.35
2019-03-16T09:15:34.363Z,62.62
2019-03-16T09:17:38.260Z,33.85
2019-03-16T09:19:42.308Z,41.20
2019-03-16T09:21:47.803Z,37.17
2019-03-16T09:23:51.594Z,31.10
2019-03-16T09:25:55.061Z,29.98
2019-03-16T09:27:58.604Z,28.95
2019-03-16T09:30:02.236Z,27.90
2019-03-16T09:32:06.016Z,19.12
2019-03-16T09:34:09.563Z,27.77
2019-03-16T09:36:14.013Z,20.70
2019-03-16T09:38:17.508Z,26.85
2019-03-16T09:40:20.968Z,27.73
2019-03-16T09:42:24.533Z,40.83
2019-03-16T09:44:28.896Z,32.50
2019-03-16T09:46:33.338Z,21.70
2019-03-16T09:48:36.872Z,20.30
2019-03-16T09:50:40.413Z,29.05
2019-03-16T09:52:43.984Z,24.43
2019-03-16T09:54:47.621Z,16.70
2019-03-16T09:57:00.612Z,13.93
2019-03-16T09:58:56.388Z,16.87
2019-03-16T10:01:01.569Z,12.78
2019-03-16T10:03:05.085Z,31.27
2019-03-16T10:05:09.018Z,22.07
2019-03-16T10:07:12.546Z,16.65
2019-03-16T10:09:16.074Z,14.30
2019-03-16T10:11:20.500Z,14.47
2019-03-16T10:13:24.033Z,16.27
2019-03-16T10:15:27.741Z,15.55
2019-03-16T10:17:31.278Z,22.17
2019-03-16T10:19:35.100Z,18.10
2019-03-16T10:21:38.641Z,17.35
2019-03-16T10:23:42.171Z,17.17
2019-03-16T10:25:45.955Z,19.67
2019-03-16T10:27:49.489Z,14.85
2019-03-16T10:29:53.416Z,11.80
2019-03-16T10:31:57.782Z,16.60
2019-03-16T10:34:01.609Z,21.68
2019-03-16T10:36:05.414Z,17.57
2019-03-16T10:38:09.242Z,16.75
2019-03-16T10:40:14.165Z,12.68
2019-03-16T10:42:18.152Z,15.40
2019-03-16T10:44:21.954Z,21.57
2019-03-16T10:46:25.488Z,10.93
2019-03-16T10:48:28.965Z,17.40
2019-03-16T10:50:32.847Z,15.50
2019-03-16T10:52:37.141Z,13.15
2019-03-16T10:54:41.580Z,22.48
2019-03-16T10:56:45.397Z,16.45
2019-03-16T10:58:56.524Z,18.30
2019-03-16T11:00:54.838Z,13.10
2019-03-16T11:02:59.307Z,16.27
2019-03-16T11:05:02.975Z,19.77
2019-03-16T11:07:06.518Z,17.48
2019-03-16T11:09:10.052Z,27.07
2019-03-16T11:11:13.841Z,20.02
2019-03-16T11:13:18.437Z,20.15
2019-03-16T11:15:22.292Z,16.75
2019-03-16T11:17:26.089Z,14.95
2019-03-16T11:19:29.973Z,11.33
2019-03-16T11:21:33.601Z,17.77
2019-03-16T11:23:37.474Z,12.73
2019-03-16T11:25:41.105Z,14.75
2019-03-16T11:27:44.584Z,14.60
2019-03-16T11:29:48.136Z,11.53
2019-03-16T11:31:51.865Z,15.45
2019-03-16T11:33:55.670Z,17.75
2019-03-16T11:35:59.131Z,11.95
2019-03-16T11:38:03.144Z,16.25
2019-03-16T11:40:12.541Z,12.80
2019-03-16T11:42:16.128Z,21.37
2019-03-16T11:44:19.901Z,17.92
2019-03-16T11:46:23.369Z,17.50
2019-03-16T11:48:27.128Z,11.12
2019-03-16T11:50:31.001Z,15.63
2019-03-16T11:52:34.528Z,74.03
2019-03-16T11:54:38.140Z,21.90
2019-03-16T11:56:42.495Z,33.88
2019-03-16T11:58:46.028Z,53.50
2019-03-16T12:00:49.682Z,56.10
2019-03-16T12:02:54.804Z,51.33
2019-03-16T12:04:58.605Z,26.85
2019-03-16T12:07:02.938Z,18.17
2019-03-16T12:09:07.608Z,26.73
2019-03-16T12:11:11.382Z,19.85
2019-03-16T12:13:18.072Z,33.02
2019-03-16T12:15:20.472Z,26.52
2019-03-16T12:17:24.220Z,28.77
2019-03-16T12:19:27.752Z,25.12
2019-03-16T12:21:31.782Z,23.70
2019-03-16T12:23:36.118Z,40.48
2019-03-16T12:25:39.673Z,15.93
2019-03-16T12:27:43.328Z,18.02
2019-03-16T12:29:47.169Z,27.42
2019-03-16T12:31:50.941Z,28.87
2019-03-16T12:33:56.509Z,15.40
2019-03-16T12:36:00.414Z,16.12
2019-03-16T12:38:04.501Z,23.95
2019-03-16T12:40:17.189Z,15.10
2019-03-16T12:42:21.015Z,16.17
2019-03-16T12:44:24.546Z,22.93
2019-03-16T12:46:28.309Z,17.67
2019-03-16T12:48:32.220Z,22.22
2019-03-16T12:50:35.741Z,17.40
2019-03-16T12:52:39.222Z,18.23
2019-03-16T12:54:43.933Z,16.10
2019-03-16T12:56:47.464Z,13.68
2019-03-16T12:58:51.817Z,13.08
2019-03-16T13:00:55.617Z,10.90
2019-03-16T13:02:59.149Z,12.63
2019-03-16T13:05:03.070Z,20.68
2019-03-16T13:07:06.949Z,25.48
2019-03-16T13:09:10.580Z,13.25
2019-03-16T13:11:14.047Z,19.85
2019-03-16T13:13:17.622Z,19.42
2019-03-16T13:15:22.421Z,15.45
2019-03-16T13:17:26.881Z,23.47
2019-03-16T13:19:30.337Z,24.25
2019-03-16T13:21:33.796Z,28.23
2019-03-16T13:23:37.365Z,24.10
2019-03-16T13:25:41.168Z,21.48
2019-03-16T13:27:45.459Z,20.40
2019-03-16T13:29:58.414Z,17.98
2019-03-16T13:31:54.525Z,18.52
2019-03-16T13:33:58.287Z,21.02
2019-03-16T13:36:01.828Z,22.15
2019-03-16T13:38:05.468Z,14.43
2019-03-16T13:40:13.598Z,19.52
2019-03-16T13:42:17.384Z,12.28
2019-03-16T13:44:21.235Z,6.50
2019-03-16T13:46:24.768Z,18.20
2019-03-16T13:48:28.630Z,15.95
2019-03-16T13:50:32.741Z,15.35
2019-03-16T13:52:36.785Z,16.55
2019-03-16T13:54:41.165Z,15.13
2019-03-16T13:56:44.966Z,14.13
2019-03-16T13:58:49.381Z,19.30
2019-03-16T14:00:53.776Z,13.53
2019-03-16T14:02:57.243Z,18.87
2019-03-16T14:05:01.101Z,18.48
2019-03-16T14:07:05.412Z,16.62
2019-03-16T14:09:09.049Z,16.75
2019-03-16T14:11:12.581Z,23.02
2019-03-16T14:13:16.405Z,12.35
2019-03-16T14:15:19.940Z,18.37
2019-03-16T14:17:24.297Z,25.27
2019-03-16T14:19:28.125Z,11.70
2019-03-16T14:21:31.669Z,22.32
2019-03-16T14:23:36.025Z,14.53
2019-03-16T14:25:39.834Z,16.15
2019-03-16T14:27:43.748Z,41.25
2019-03-16T14:29:47.430Z,45.92
2019-03-16T14:31:51.613Z,35.03
2019-03-16T14:33:55.953Z,17.65
2019-03-16T14:36:00.441Z,21.30
2019-03-16T14:38:04.388Z,19.35
2019-03-16T14:40:13.472Z,52.78
2019-03-16T14:42:17.279Z,182.63
2019-03-16T14:44:20.869Z,26.33
2019-03-16T14:46:25.242Z,63.50
2019-03-16T14:48:29.138Z,26.62
2019-03-16T14:50:32.733Z,30.90
2019-03-16T14:52:36.561Z,32.88
2019-03-16T14:54:40.285Z,34.60
2019-03-16T14:56:44.284Z,31.42
2019-03-16T14:58:48.638Z,34.35
2019-03-16T15:00:53.059Z,38.55
2019-03-16T15:02:56.602Z,20.20
2019-03-16T15:05:00.486Z,23.70
2019-03-16T15:07:04.286Z,41.23
2019-03-16T15:09:08.722Z,21.73
2019-03-16T15:11:12.608Z,40.73
2019-03-16T15:13:16.471Z,26.70
2019-03-16T15:15:21.848Z,33.23
2019-03-16T15:17:25.661Z,24.60
2019-03-16T15:19:29.222Z,37.55
2019-03-16T15:21:33.153Z,61.60
2019-03-16T15:23:36.801Z,236.32
2019-03-16T15:25:40.569Z,198.43
2019-03-16T15:27:44.975Z,65.35
2019-03-16T15:29:48.623Z,108.97
2019-03-16T15:31:53.171Z,53.80
2019-03-16T15:33:56.701Z,71.22
2019-03-16T15:36:00.248Z,122.28
2019-03-16T15:38:03.817Z,62.00
2019-03-16T15:40:10.487Z,55.30
2019-03-16T15:42:14.274Z,54.85
2019-03-16T15:44:18.157Z,58.80
2019-03-16T15:46:22.280Z,43.33
2019-03-16T15:48:26.170Z,57.03
2019-03-16T15:50:29.633Z,41.28
2019-03-16T15:52:33.285Z,67.58
2019-03-16T15:54:36.962Z,63.50
2019-03-16T15:56:40.428Z,43.17
2019-03-16T15:58:44.494Z,66.67
2019-03-16T16:00:48.104Z,130.22
2019-03-16T16:02:51.969Z,96.87
2019-03-16T16:04:56.368Z,31.97
2019-03-16T16:07:00.185Z,25.77
2019-03-16T16:09:06.007Z,27.48
2019-03-16T16:11:09.722Z,43.52
2019-03-16T16:13:13.619Z,58.38
2019-03-16T16:15:17.469Z,43.73
2019-03-16T16:17:21.015Z,42.73
2019-03-16T16:19:24.845Z,43.85
2019-03-16T16:21:28.473Z,51.98
2019-03-16T16:23:32.141Z,45.43
2019-03-16T16:25:36.639Z,51.95
2019-03-16T16:27:40.411Z,51.98
2019-03-16T16:29:46.403Z,35.38
2019-03-16T16:31:50.290Z,47.30
2019-03-16T16:33:53.825Z,36.68
2019-03-16T16:35:57.765Z,32.33
2019-03-16T16:38:01.304Z,39.70
2019-03-16T16:40:08.481Z,72.80
2019-03-16T16:42:15.015Z,66.57
2019-03-16T16:44:18.557Z,47.33
2019-03-16T16:46:22.034Z,27.85
2019-03-16T16:48:25.565Z,26.25
2019-03-16T16:50:29.128Z,24.90
2019-03-16T16:52:32.962Z,33.25
2019-03-16T16:54:37.801Z,36.73
2019-03-16T16:56:41.697Z,34.65
2019-03-16T16:58:45.308Z,22.42
2019-03-16T17:00:48.769Z,26.20
2019-03-16T17:02:52.485Z,41.98
2019-03-16T17:04:56.613Z,136.25
2019-03-16T17:07:00.531Z,87.50
2019-03-16T17:09:06.938Z,32.88
2019-03-16T17:11:10.689Z,241.17
2019-03-16T17:13:14.221Z,86.60
2019-03-16T17:15:22.218Z,131.67
2019-03-16T17:17:35.231Z,162.80
2019-03-16T17:19:31.237Z,189.52
2019-03-16T17:21:34.988Z,144.68
2019-03-16T17:23:38.488Z,132.12
2019-03-16T17:25:42.088Z,121.77
2019-03-16T17:27:45.891Z,174.50
2019-03-16T17:29:49.789Z,180.30
2019-03-16T17:31:53.331Z,191.98
2019-03-16T17:33:57.189Z,131.03
2019-03-16T17:36:01.683Z,85.07
2019-03-16T17:38:05.532Z,70.32
2019-03-16T17:40:14.322Z,74.22
2019-03-16T17:42:18.464Z,52.40
2019-03-16T17:44:22.042Z,52.15
2019-03-16T17:46:26.363Z,36.42
2019-03-16T17:48:30.310Z,99.03
2019-03-16T17:50:33.941Z,40.48
2019-03-16T17:52:37.757Z,20.20
2019-03-16T17:54:41.225Z,32.03
2019-03-16T17:56:45.297Z,41.18
2019-03-16T17:58:48.857Z,50.45
2019-03-16T18:00:53.173Z,31.80
2019-03-16T18:02:56.811Z,60.63
2019-03-16T18:05:00.411Z,26.85
2019-03-16T18:07:04.478Z,84.13
2019-03-16T18:09:08.156Z,24.18
2019-03-16T18:11:11.986Z,54.00
2019-03-16T18:13:15.521Z,452.75
2019-03-16T18:15:20.556Z,161.60
2019-03-16T18:17:24.137Z,228.80
2019-03-16T18:19:27.885Z,471.00
2019-03-16T18:21:32.302Z,162.03
2019-03-16T18:23:36.130Z,762.70
2019-03-16T18:25:39.989Z,510.17
2019-03-16T18:27:43.701Z,255.05
2019-03-16T18:29:47.273Z,162.88
2019-03-16T18:31:50.997Z,76.30
2019-03-16T18:33:55.877Z,63.25
2019-03-16T18:36:03.390Z,94.35
2019-03-16T18:38:06.943Z,118.72
2019-03-16T18:40:12.543Z,111.15
2019-03-16T18:42:16.908Z,162.20
2019-03-16T18:44:20.809Z,507.80
2019-03-16T18:46:24.284Z,471.27
2019-03-16T18:48:30.353Z,238.50
2019-03-16T18:50:33.652Z,225.78
2019-03-16T18:52:37.529Z,225.28
2019-03-16T18:54:41.106Z,339.10
2019-03-16T18:56:44.643Z,237.60
2019-03-16T18:58:48.449Z,354.85
2019-03-16T19:00:54.959Z,152.68
2019-03-16T19:02:58.877Z,108.55
2019-03-16T19:05:02.379Z,180.40
2019-03-16T19:07:05.973Z,242.18
2019-03-16T19:09:10.737Z,180.50
2019-03-16T19:11:14.498Z,171.47
2019-03-16T19:13:18.413Z,165.65
2019-03-16T19:15:22.248Z,202.82
2019-03-16T19:17:25.784Z,131.45
2019-03-16T19:19:29.544Z,129.27
2019-03-16T19:21:33.037Z,67.82
2019-03-16T19:23:37.408Z,145.75
2019-03-16T19:25:41.366Z,318.35
2019-03-16T19:27:45.222Z,154.47
2019-03-16T19:29:48.862Z,68.37
2019-03-16T19:31:52.393Z,67.47
2019-03-16T19:33:56.164Z,76.12
2019-03-16T19:36:00.074Z,50.70
2019-03-16T19:38:03.615Z,76.90
2019-03-16T19:40:12.572Z,80.12
2019-03-16T19:42:17.545Z,115.40
2019-03-16T19:44:21.276Z,95.20
2019-03-16T19:46:25.115Z,133.52
2019-03-16T19:48:28.581Z,54.42
2019-03-16T19:50:32.575Z,45.03
2019-03-16T19:52:36.920Z,53.85
2019-03-16T19:54:40.460Z,55.70
2019-03-16T19:56:44.239Z,47.65
2019-03-16T19:58:59.746Z,90.72
2019-03-16T20:00:53.401Z,113.83
2019-03-16T20:02:56.869Z,139.35
2019-03-16T20:05:00.775Z,100.82
2019-03-16T20:07:04.304Z,98.95
2019-03-16T20:09:08.273Z,60.78
2019-03-16T20:11:12.185Z,32.25
2019-03-16T20:13:15.725Z,33.42
2019-03-16T20:15:19.616Z,38.78
2019-03-16T20:17:23.588Z,52.65
2019-03-16T20:19:27.725Z,67.97
2019-03-16T20:21:31.705Z,78.15
2019-03-16T20:23:35.617Z,80.50
2019-03-16T20:25:39.538Z,77.70
2019-03-16T20:27:43.846Z,85.22
2019-03-16T20:29:48.063Z,80.50
2019-03-16T20:31:52.045Z,173.05
2019-03-16T20:33:55.796Z,289.68
2019-03-16T20:35:59.337Z,190.97
2019-03-16T20:38:03.208Z,78.50
2019-03-16T20:40:17.215Z,56.48
2019-03-16T20:42:21.096Z,85.80
2019-03-16T20:44:24.668Z,76.82
2019-03-16T20:46:29.129Z,68.15
2019-03-16T20:48:32.938Z,98.47
2019-03-16T20:50:36.817Z,89.15
2019-03-16T20:52:40.280Z,84.05
2019-03-16T20:54:44.097Z,135.80
2019-03-16T20:56:47.632Z,162.53
2019-03-16T20:58:51.097Z,158.27
2019-03-16T21:00:57.980Z,102.15
2019-03-16T21:03:00.160Z,183.40
2019-03-16T21:05:04.657Z,75.22
2019-03-16T21:07:08.153Z,87.82
2019-03-16T21:09:11.913Z,303.50
2019-03-16T21:11:15.989Z,66.07
2019-03-16T21:13:19.846Z,44.23
2019-03-16T21:15:23.784Z,70.50
2019-03-16T21:17:27.246Z,49.58
2019-03-16T21:19:30.953Z,60.98
2019-03-16T21:21:37.497Z,49.93
2019-03-16T21:23:41.033Z,53.45
2019-03-16T21:25:44.864Z,66.10
2019-03-16T21:27:49.252Z,53.35
2019-03-16T21:29:52.907Z,221.90
2019-03-16T21:31:56.449Z,62.85
2019-03-16T21:34:00.080Z,73.70
2019-03-16T21:36:03.953Z,56.75
2019-03-16T21:38:07.485Z,69.90
2019-03-16T21:40:14.099Z,51.48
2019-03-16T21:42:17.661Z,50.85
2019-03-16T21:44:21.541Z,103.60
2019-03-16T21:46:25.345Z,56.18
2019-03-16T21:48:28.945Z,48.73
2019-03-16T21:50:32.409Z,58.52
2019-03-16T21:52:35.976Z,63.48
2019-03-16T21:54:39.442Z,60.70
2019-03-16T21:56:43.329Z,61.15
2019-03-16T21:58:46.789Z,67.75
2019-03-16T22:00:50.733Z,73.35
2019-03-16T22:02:54.266Z,89.37
2019-03-16T22:04:57.855Z,85.95
2019-03-16T22:07:01.374Z,88.67
2019-03-16T22:09:07.013Z,129.78
2019-03-16T22:11:10.769Z,113.55
2019-03-16T22:13:14.321Z,112.28
2019-03-16T22:15:17.886Z,88.70
2019-03-16T22:17:21.738Z,78.42
2019-03-16T22:19:25.641Z,74.77
2019-03-16T22:21:29.565Z,107.12
2019-03-16T22:23:33.964Z,74.32
2019-03-16T22:25:38.257Z,70.55
2019-03-16T22:27:42.156Z,79.20
2019-03-16T22:29:45.696Z,70.87
2019-03-16T22:31:49.582Z,56.02
2019-03-16T22:33:54.651Z,62.17
2019-03-16T22:35:58.628Z,52.10
2019-03-16T22:38:02.529Z,116.80
2019-03-16T22:40:12.165Z,50.83
2019-03-16T22:42:17.093Z,51.37
2019-03-16T22:44:21.000Z,395.73
2019-03-16T22:46:24.537Z,67.08
2019-03-16T22:48:28.021Z,49.08
2019-03-16T22:50:31.923Z,53.87
2019-03-16T22:52:35.579Z,146.18
2019-03-16T22:54:39.117Z,209.40
2019-03-16T22:56:42.649Z,82.02
2019-03-16T22:58:46.394Z,93.20
2019-03-16T23:00:52.884Z,69.12
2019-03-16T23:02:56.348Z,84.60
2019-03-16T23:05:00.293Z,75.80
2019-03-16T23:07:04.332Z,57.20
2019-03-16T23:09:08.002Z,51.30
2019-03-16T23:11:11.465Z,45.83
2019-03-16T23:13:15.257Z,49.70
2019-03-16T23:15:18.792Z,54.35
2019-03-16T23:17:22.321Z,49.45
2019-03-16T23:19:26.383Z,114.12
2019-03-16T23:21:29.922Z,73.12
2019-03-16T23:23:33.533Z,51.42
2019-03-16T23:25:37.009Z,47.58
2019-03-16T23:27:40.845Z,50.45
2019-03-16T23:29:44.652Z,47.35
2019-03-16T23:31:48.320Z,47.40
2019-03-16T23:33:52.162Z,62.53
2019-03-16T23:35:55.694Z,52.38
2019-03-16T23:37:59.225Z,49.58
2019-03-16T23:40:03.108Z,52.98
2019-03-16T23:42:06.572Z,48.23
2019-03-16T23:44:10.046Z,45.80
2019-03-16T23:46:13.580Z,45.75
2019-03-16T23:48:17.144Z,50.20
2019-03-16T23:50:20.608Z,48.85
2019-03-16T23:52:24.135Z,49.05
2019-03-16T23:54:27.708Z,51.60
2019-03-16T23:56:31.373Z,39.85
2019-03-16T23:58:35.605Z,48.20
